»·PEaware :: AAL6295 KPHX-KABQ

AAL6295 :: KPHX-KABQ

FLIGHT INFORMATION

Flight Status: Arrived
Operator:
American Airlines
More flights by this operator :: More flights under this callsign
Pilot: Antonio A. (14008)
Aircraft: CANADAIR CL-600 CRJ-700
(CRJ7)
More flights by this aircraft type
Origin: KPHX Phoenix Sky Harbor Intl
United States
Destination: KABQ Albuquerque Intl Sunport
United States
More flights between these airports :: More routes between these airports
Route: +LALUZ5 SJN CABNO KRKEE3
File this flight plan on PilotEdge
Remarks:
Altitude:
(Current/Filed)
25,000ft
Speed:
(Current/Filed)
330kts
Departed: 20-Sep-17 05:42 PM
Arrived: 20-Sep-17 06:48 PM
Distance/Time
Traveled:
284nm/1:06
Distance/Time
To Go:
Arrived

Flight Plot

Page will automatically refresh every two minutes.

Flight plan parsing failed; only flown route is shown


Map Options




Map Legend


Flown Route
Filed Route
Departure Airport
Arrival Airport
Navaid (VOR, NDB)
Fix

Horizontal Profiles

Position Reports

Time Latitude Longitude Heading Altitude Ground
Speed
20-Sep-17 17:20 33.433080 -112.013603 357 1142ft 0kts
20-Sep-17 17:21 33.433080 -112.013603 357 1142ft 0kts
20-Sep-17 17:22 33.433080 -112.013603 357 1142ft 0kts
20-Sep-17 17:23 33.433080 -112.013603 357 1142ft 0kts
20-Sep-17 17:24 33.433080 -112.013603 357 1142ft 0kts
20-Sep-17 17:25 33.433080 -112.013603 357 1142ft 0kts
20-Sep-17 17:26 33.433080 -112.013603 357 1142ft 0kts
20-Sep-17 17:27 33.433080 -112.013603 357 1142ft 0kts
20-Sep-17 17:28 33.433080 -112.013603 357 1142ft 0kts
20-Sep-17 17:29 33.433080 -112.013603 357 1142ft 0kts
20-Sep-17 17:30 33.432974 -112.013598 357 1142ft 2kts
20-Sep-17 17:31 33.432771 -112.013588 357 1142ft 0kts
20-Sep-17 17:32 33.432772 -112.013588 357 1142ft 0kts
20-Sep-17 17:33 33.432776 -112.013589 357 1142ft 0kts
20-Sep-17 17:34 33.432779 -112.013589 357 1142ft 0kts
20-Sep-17 17:35 33.432782 -112.013589 357 1142ft 0kts
20-Sep-17 17:36 33.432785 -112.013589 357 1142ft 0kts
20-Sep-17 17:37 33.432733 -112.013571 32 1142ft 7kts
20-Sep-17 17:38 33.432760 -112.014789 267 1142ft 15kts
20-Sep-17 17:39 33.432185 -112.016183 90 1142ft 13kts
20-Sep-17 17:40 33.432181 -112.009687 90 1142ft 25kts
20-Sep-17 17:41 33.432182 -112.001268 90 1142ft 26kts
20-Sep-17 17:42 33.432182 -111.994071 90 1142ft 5kts
20-Sep-17 17:43 33.432036 -111.992924 169 1142ft 4kts
20-Sep-17 17:44 33.431909 -111.993067 230 1142ft 5kts
20-Sep-17 17:45 33.431678 -111.993440 234 1142ft 0kts
20-Sep-17 17:46 33.431015 -112.014384 270 1247ft 182kts
20-Sep-17 17:47 33.454788 -112.082900 308 2156ft 240kts
20-Sep-17 17:48 33.503739 -112.143332 312 4092ft 267kts
20-Sep-17 17:49 33.573333 -112.173586 356 5995ft 283kts
20-Sep-17 17:50 33.644083 -112.132959 41 7903ft 295kts
20-Sep-17 17:51 33.702497 -112.061165 46 9812ft 305kts
20-Sep-17 17:52 33.741042 -111.969517 86 11739ft 334kts
20-Sep-17 17:53 33.738386 -111.854799 97 13650ft 352kts
20-Sep-17 17:54 33.728455 -111.735408 99 15560ft 364kts
20-Sep-17 17:55 33.715802 -111.612916 100 17463ft 375kts
20-Sep-17 17:56 33.702523 -111.485991 98 19370ft 393kts
20-Sep-17 17:57 33.692112 -111.352416 97 21280ft 408kts
20-Sep-17 17:58 33.716118 -111.220338 71 23190ft 419kts
20-Sep-17 17:59 33.760012 -111.087698 68 24767ft 440kts
20-Sep-17 18:00 33.809434 -110.944267 67 24872ft 488kts
20-Sep-17 18:01 33.862791 -110.791306 67 24901ft 501kts
20-Sep-17 18:02 33.916928 -110.635606 69 24927ft 504kts
20-Sep-17 18:03 33.966002 -110.477716 69 24980ft 504kts
20-Sep-17 18:04 34.015691 -110.319410 68 25056ft 504kts
20-Sep-17 18:05 34.064820 -110.191652 68 25105ft 504kts
20-Sep-17 18:06 34.117282 -110.035032 68 25124ft 504kts
20-Sep-17 18:07 34.178865 -109.851903 68 25131ft 504kts
20-Sep-17 18:08 34.222778 -109.721508 68 25125ft 503kts
20-Sep-17 18:09 34.284290 -109.538767 68 25105ft 503kts
20-Sep-17 18:10 34.328352 -109.407653 68 25098ft 503kts
20-Sep-17 18:11 34.380928 -109.250933 68 25093ft 503kts
20-Sep-17 18:12 34.433735 -109.064326 84 25098ft 501kts
20-Sep-17 18:13 34.446902 -108.924608 84 25103ft 501kts
20-Sep-17 18:14 34.469543 -108.758143 81 25099ft 502kts
20-Sep-17 18:15 34.493026 -108.591647 81 25107ft 500kts
20-Sep-17 18:16 34.516026 -108.436592 80 23903ft 439kts
20-Sep-17 18:17 34.539934 -108.295934 79 22273ft 417kts
20-Sep-17 18:18 34.563111 -108.160548 79 21145ft 399kts
20-Sep-17 18:19 34.585419 -108.028751 79 21104ft 400kts
20-Sep-17 18:20 34.607526 -107.896956 79 21090ft 398kts
20-Sep-17 18:21 34.640187 -107.767704 66 20479ft 401kts
20-Sep-17 18:22 34.688450 -107.651284 62 18819ft 374kts
20-Sep-17 18:23 34.736267 -107.541637 62 17154ft 360kts
20-Sep-17 18:24 34.782037 -107.435469 62 15495ft 349kts
20-Sep-17 18:25 34.826024 -107.332284 63 14101ft 334kts
20-Sep-17 18:26 34.868673 -107.231002 63 12465ft 334kts
20-Sep-17 18:27 34.910140 -107.132408 63 10663ft 317kts
20-Sep-17 18:28 34.948179 -107.042819 63 9960ft 272kts
20-Sep-17 18:29 34.979457 -106.960407 72 9324ft 275kts
20-Sep-17 18:30 35.004758 -106.872314 72 8027ft 264kts
20-Sep-17 18:31 35.028513 -106.792180 72 7968ft 246kts
20-Sep-17 18:32 35.048024 -106.715550 95 7366ft 218kts
20-Sep-17 18:33 35.044745 -106.650392 91 6248ft 154kts
20-Sep-17 18:34 35.043287 -106.590409 94 6276ft 205kts
20-Sep-17 18:35 35.076731 -106.549090 339 6285ft 232kts
20-Sep-17 18:36 35.124995 -106.597527 291 7747ft 222kts
20-Sep-17 18:37 35.098393 -106.656644 246 8842ft 215kts
20-Sep-17 18:38 35.132636 -106.718758 317 8972ft 241kts
20-Sep-17 18:39 35.185322 -106.767650 318 8973ft 235kts
20-Sep-17 18:40 35.219754 -106.827105 263 8985ft 219kts
20-Sep-17 18:41 35.211813 -106.901050 258 8972ft 219kts
20-Sep-17 18:42 35.202963 -106.975114 258 8972ft 219kts
20-Sep-17 18:43 35.193454 -107.048661 248 8961ft 218kts
20-Sep-17 18:44 35.139178 -107.057476 150 8954ft 229kts
20-Sep-17 18:45 35.105616 -106.988151 118 8467ft 244kts
20-Sep-17 18:46 35.078111 -106.918436 118 7476ft 204kts
20-Sep-17 18:47 35.054726 -106.862055 119 7467ft 175kts
20-Sep-17 18:48 35.043891 -106.805669 94 7243ft 171kts
20-Sep-17 18:49 35.044926 -106.749915 92 7176ft 163kts
20-Sep-17 18:50 35.044713 -106.694148 92 6604ft 161kts
20-Sep-17 18:51 35.044477 -106.642076 92 5770ft 149kts
20-Sep-17 18:52 35.044117 -106.604092 88 5362ft 18kts
20-Sep-17 18:53 35.044836 -106.601799 286 5362ft 8kts
20-Sep-17 18:54 35.045020 -106.602351 299 5362ft 0kts
20-Sep-17 18:55 35.045753 -106.604343 275 5362ft 12kts
20-Sep-17 18:56 35.045821 -106.612753 281 5362ft 21kts
20-Sep-17 18:57 35.046945 -106.615765 356 5362ft 0kts
20-Sep-17 18:58 35.046946 -106.615765 356 5362ft 0kts
20-Sep-17 18:59 35.046946 -106.615765 356 5362ft 0kts
20-Sep-17 19:00 35.046946 -106.615765 356 5362ft 0kts
20-Sep-17 19:01 35.046946 -106.615765 356 5362ft 0kts
20-Sep-17 19:02 35.046946 -106.615765 356 5362ft 0kts

Navigation Log

Ident Type
Flight plan parsing failed, navigation log unavailable